sensor_id;sensor_type;location;lat;lon;timestamp;temperature;humidity
16412;DHT22;8315;52.104;6.304;2023-01-29T00:01:45;3.30;98.40
16412;DHT22;8315;52.104;6.304;2023-01-29T00:04:12;3.30;98.40
16412;DHT22;8315;52.104;6.304;2023-01-29T00:06:39;3.30;98.40
16412;DHT22;8315;52.104;6.304;2023-01-29T00:09:07;3.30;98.40
16412;DHT22;8315;52.104;6.304;2023-01-29T00:11:34;3.30;98.40
16412;DHT22;8315;52.104;6.304;2023-01-29T00:14:01;3.00;98.40
16412;DHT22;8315;52.104;6.304;2023-01-29T00:16:28;3.10;98.40
16412;DHT22;8315;52.104;6.304;2023-01-29T00:18:55;3.20;98.40
16412;DHT22;8315;52.104;6.304;2023-01-29T00:21:21;3.10;98.40
16412;DHT22;8315;52.104;6.304;2023-01-29T00:23:49;3.10;98.40
16412;DHT22;8315;52.104;6.304;2023-01-29T00:26:18;3.10;98.40
16412;DHT22;8315;52.104;6.304;2023-01-29T00:28:46;3.20;98.40
16412;DHT22;8315;52.104;6.304;2023-01-29T00:31:14;3.20;98.40
16412;DHT22;8315;52.104;6.304;2023-01-29T00:33:42;3.10;98.40
16412;DHT22;8315;52.104;6.304;2023-01-29T00:36:11;3.00;98.40
16412;DHT22;8315;52.104;6.304;2023-01-29T00:38:39;3.00;98.40
16412;DHT22;8315;52.104;6.304;2023-01-29T00:41:06;2.90;98.40
16412;DHT22;8315;52.104;6.304;2023-01-29T00:43:52;3.00;98.40
16412;DHT22;8315;52.104;6.304;2023-01-29T00:46:37;2.90;98.40
16412;DHT22;8315;52.104;6.304;2023-01-29T00:49:04;2.80;98.40
16412;DHT22;8315;52.104;6.304;2023-01-29T00:51:32;2.80;98.40
16412;DHT22;8315;52.104;6.304;2023-01-29T00:53:59;2.80;98.40
16412;DHT22;8315;52.104;6.304;2023-01-29T00:56:26;2.80;98.40
16412;DHT22;8315;52.104;6.304;2023-01-29T00:58:55;2.80;98.40
16412;DHT22;8315;52.104;6.304;2023-01-29T01:01:22;2.90;98.40
16412;DHT22;8315;52.104;6.304;2023-01-29T01:04:03;2.80;98.40
16412;DHT22;8315;52.104;6.304;2023-01-29T01:06:30;3.00;98.40
16412;DHT22;8315;52.104;6.304;2023-01-29T01:08:57;3.00;98.40
16412;DHT22;8315;52.104;6.304;2023-01-29T01:11:41;3.10;98.40
16412;DHT22;8315;52.104;6.304;2023-01-29T01:14:09;3.00;98.40
16412;DHT22;8315;52.104;6.304;2023-01-29T01:16:36;3.00;98.40
16412;DHT22;8315;52.104;6.304;2023-01-29T01:19:03;3.00;98.40
16412;DHT22;8315;52.104;6.304;2023-01-29T01:21:31;3.00;98.40
16412;DHT22;8315;52.104;6.304;2023-01-29T01:23:58;3.00;98.40
16412;DHT22;8315;52.104;6.304;2023-01-29T01:26:26;3.00;98.40
16412;DHT22;8315;52.104;6.304;2023-01-29T01:28:54;3.00;98.40
16412;DHT22;8315;52.104;6.304;2023-01-29T01:31:22;3.10;98.40
16412;DHT22;8315;52.104;6.304;2023-01-29T01:33:49;2.80;98.40
16412;DHT22;8315;52.104;6.304;2023-01-29T01:36:18;2.90;98.40
16412;DHT22;8315;52.104;6.304;2023-01-29T01:38:45;2.90;98.40
16412;DHT22;8315;52.104;6.304;2023-01-29T01:41:12;3.00;98.40
16412;DHT22;8315;52.104;6.304;2023-01-29T01:43:47;3.00;98.40
16412;DHT22;8315;52.104;6.304;2023-01-29T01:46:15;3.00;98.40
16412;DHT22;8315;52.104;6.304;2023-01-29T01:48:44;2.90;98.40
16412;DHT22;8315;52.104;6.304;2023-01-29T01:51:12;2.80;98.40
16412;DHT22;8315;52.104;6.304;2023-01-29T01:53:40;2.80;98.40
16412;DHT22;8315;52.104;6.304;2023-01-29T01:56:09;2.70;98.40
16412;DHT22;8315;52.104;6.304;2023-01-29T01:58:40;2.70;98.40
16412;DHT22;8315;52.104;6.304;2023-01-29T02:01:09;2.70;98.40
16412;DHT22;8315;52.104;6.304;2023-01-29T02:03:38;2.80;98.40
16412;DHT22;8315;52.104;6.304;2023-01-29T02:06:26;2.80;98.40
16412;DHT22;8315;52.104;6.304;2023-01-29T02:09:12;2.80;98.40
16412;DHT22;8315;52.104;6.304;2023-01-29T02:11:59;2.80;98.40
16412;DHT22;8315;52.104;6.304;2023-01-29T02:14:26;2.90;98.40
16412;DHT22;8315;52.104;6.304;2023-01-29T02:16:53;2.90;98.40
16412;DHT22;8315;52.104;6.304;2023-01-29T02:19:21;2.90;98.40
16412;DHT22;8315;52.104;6.304;2023-01-29T02:22:01;2.90;98.40
16412;DHT22;8315;52.104;6.304;2023-01-29T02:24:45;2.80;98.40
16412;DHT22;8315;52.104;6.304;2023-01-29T02:30:42;3.00;98.40
16412;DHT22;8315;52.104;6.304;2023-01-29T02:33:13;3.00;98.40
16412;DHT22;8315;52.104;6.304;2023-01-29T02:35:49;2.90;98.40
16412;DHT22;8315;52.104;6.304;2023-01-29T02:38:20;2.70;98.40
16412;DHT22;8315;52.104;6.304;2023-01-29T02:40:52;2.80;98.40
16412;DHT22;8315;52.104;6.304;2023-01-29T02:43:24;2.80;98.40
16412;DHT22;8315;52.104;6.304;2023-01-29T02:45:58;2.90;98.40
16412;DHT22;8315;52.104;6.304;2023-01-29T02:48:28;2.90;98.40
16412;DHT22;8315;52.104;6.304;2023-01-29T02:51:01;2.90;98.40
16412;DHT22;8315;52.104;6.304;2023-01-29T02:53:31;3.00;98.40
16412;DHT22;8315;52.104;6.304;2023-01-29T02:56:02;3.00;98.40
16412;DHT22;8315;52.104;6.304;2023-01-29T02:58:37;3.10;98.40
16412;DHT22;8315;52.104;6.304;2023-01-29T03:01:07;3.10;98.40
16412;DHT22;8315;52.104;6.304;2023-01-29T03:03:37;3.10;98.40
16412;DHT22;8315;52.104;6.304;2023-01-29T03:06:07;3.10;98.40
16412;DHT22;8315;52.104;6.304;2023-01-29T03:08:43;3.10;98.40
16412;DHT22;8315;52.104;6.304;2023-01-29T03:11:14;3.10;98.40
16412;DHT22;8315;52.104;6.304;2023-01-29T03:13:44;3.10;98.40
16412;DHT22;8315;52.104;6.304;2023-01-29T03:16:16;3.10;98.40
16412;DHT22;8315;52.104;6.304;2023-01-29T03:18:48;3.10;98.40
16412;DHT22;8315;52.104;6.304;2023-01-29T03:21:19;3.20;98.40
16412;DHT22;8315;52.104;6.304;2023-01-29T03:24:08;3.10;98.40
16412;DHT22;8315;52.104;6.304;2023-01-29T03:26:54;3.00;98.40
16412;DHT22;8315;52.104;6.304;2023-01-29T03:29:44;3.00;98.40
16412;DHT22;8315;52.104;6.304;2023-01-29T03:32:49;3.00;98.40
16412;DHT22;8315;52.104;6.304;2023-01-29T03:35:17;3.00;98.40
16412;DHT22;8315;52.104;6.304;2023-01-29T03:37:58;2.80;98.40
16412;DHT22;8315;52.104;6.304;2023-01-29T03:40:26;2.80;98.40
16412;DHT22;8315;52.104;6.304;2023-01-29T03:42:56;2.80;98.40
16412;DHT22;8315;52.104;6.304;2023-01-29T03:45:33;2.90;98.40
16412;DHT22;8315;52.104;6.304;2023-01-29T03:48:07;2.90;98.40
16412;DHT22;8315;52.104;6.304;2023-01-29T03:50:37;2.80;98.40
16412;DHT22;8315;52.104;6.304;2023-01-29T03:53:12;2.80;98.40
16412;DHT22;8315;52.104;6.304;2023-01-29T03:55:45;2.80;98.40
16412;DHT22;8315;52.104;6.304;2023-01-29T03:58:20;2.70;98.40
16412;DHT22;8315;52.104;6.304;2023-01-29T04:00:52;2.70;98.40
16412;DHT22;8315;52.104;6.304;2023-01-29T04:03:22;2.80;98.40
16412;DHT22;8315;52.104;6.304;2023-01-29T04:05:53;2.80;98.40
16412;DHT22;8315;52.104;6.304;2023-01-29T04:08:31;2.90;98.40
16412;DHT22;8315;52.104;6.304;2023-01-29T04:11:01;2.90;98.40
16412;DHT22;8315;52.104;6.304;2023-01-29T04:13:30;2.90;98.40
16412;DHT22;8315;52.104;6.304;2023-01-29T04:16:00;2.90;98.40
16412;DHT22;8315;52.104;6.304;2023-01-29T04:18:52;2.90;98.40
16412;DHT22;8315;52.104;6.304;2023-01-29T04:21:30;2.80;98.40
16412;DHT22;8315;52.104;6.304;2023-01-29T04:23:58;2.80;98.40
16412;DHT22;8315;52.104;6.304;2023-01-29T04:26:30;2.80;98.40
16412;DHT22;8315;52.104;6.304;2023-01-29T04:29:08;2.70;98.40
16412;DHT22;8315;52.104;6.304;2023-01-29T04:31:44;2.60;98.40
16412;DHT22;8315;52.104;6.304;2023-01-29T04:34:18;2.70;98.40
16412;DHT22;8315;52.104;6.304;2023-01-29T04:36:52;2.70;98.40
16412;DHT22;8315;52.104;6.304;2023-01-29T04:39:29;2.70;98.40
16412;DHT22;8315;52.104;6.304;2023-01-29T04:41:58;2.80;98.40
16412;DHT22;8315;52.104;6.304;2023-01-29T04:44:30;2.80;98.40
16412;DHT22;8315;52.104;6.304;2023-01-29T04:47:03;2.80;98.40
16412;DHT22;8315;52.104;6.304;2023-01-29T04:49:33;2.80;98.40
16412;DHT22;8315;52.104;6.304;2023-01-29T04:52:04;2.80;98.40
16412;DHT22;8315;52.104;6.304;2023-01-29T04:54:36;2.80;98.40
16412;DHT22;8315;52.104;6.304;2023-01-29T04:57:13;2.80;98.40
16412;DHT22;8315;52.104;6.304;2023-01-29T04:59:44;2.80;98.40
16412;DHT22;8315;52.104;6.304;2023-01-29T05:02:15;2.70;98.40
16412;DHT22;8315;52.104;6.304;2023-01-29T05:04:42;2.80;98.40
16412;DHT22;8315;52.104;6.304;2023-01-29T05:07:10;2.80;98.40
16412;DHT22;8315;52.104;6.304;2023-01-29T05:09:39;2.70;98.40
16412;DHT22;8315;52.104;6.304;2023-01-29T05:12:08;2.70;98.40
16412;DHT22;8315;52.104;6.304;2023-01-29T05:14:36;2.70;98.40
16412;DHT22;8315;52.104;6.304;2023-01-29T05:17:07;2.60;98.40
16412;DHT22;8315;52.104;6.304;2023-01-29T05:19:37;2.70;98.40
16412;DHT22;8315;52.104;6.304;2023-01-29T05:22:04;2.80;98.40
16412;DHT22;8315;52.104;6.304;2023-01-29T05:24:31;2.80;98.40
16412;DHT22;8315;52.104;6.304;2023-01-29T05:26:58;2.80;98.40
16412;DHT22;8315;52.104;6.304;2023-01-29T05:29:44;2.70;98.40
16412;DHT22;8315;52.104;6.304;2023-01-29T05:32:12;2.70;98.40
16412;DHT22;8315;52.104;6.304;2023-01-29T05:34:41;2.80;98.40
16412;DHT22;8315;52.104;6.304;2023-01-29T05:37:08;2.90;98.40
16412;DHT22;8315;52.104;6.304;2023-01-29T05:39:35;2.90;98.40
16412;DHT22;8315;52.104;6.304;2023-01-29T05:42:01;2.80;98.40
16412;DHT22;8315;52.104;6.304;2023-01-29T05:44:28;2.80;98.40
16412;DHT22;8315;52.104;6.304;2023-01-29T05:46:55;2.90;98.40
16412;DHT22;8315;52.104;6.304;2023-01-29T05:49:22;2.90;98.40
16412;DHT22;8315;52.104;6.304;2023-01-29T05:51:50;2.90;98.40
16412;DHT22;8315;52.104;6.304;2023-01-29T05:54:17;2.90;98.40
16412;DHT22;8315;52.104;6.304;2023-01-29T05:56:44;2.90;98.40
16412;DHT22;8315;52.104;6.304;2023-01-29T05:59:11;2.90;98.40
16412;DHT22;8315;52.104;6.304;2023-01-29T06:01:37;2.90;98.40
16412;DHT22;8315;52.104;6.304;2023-01-29T06:04:04;2.90;98.40
16412;DHT22;8315;52.104;6.304;2023-01-29T06:06:31;2.90;98.40
16412;DHT22;8315;52.104;6.304;2023-01-29T06:08:59;2.90;98.40
16412;DHT22;8315;52.104;6.304;2023-01-29T06:11:26;2.80;98.40
16412;DHT22;8315;52.104;6.304;2023-01-29T06:13:53;2.80;98.40
16412;DHT22;8315;52.104;6.304;2023-01-29T06:16:20;2.80;98.40
16412;DHT22;8315;52.104;6.304;2023-01-29T06:18:47;2.90;98.40
16412;DHT22;8315;52.104;6.304;2023-01-29T06:21:14;2.80;98.40
16412;DHT22;8315;52.104;6.304;2023-01-29T06:23:40;2.80;98.40
16412;DHT22;8315;52.104;6.304;2023-01-29T06:26:09;2.80;98.40
16412;DHT22;8315;52.104;6.304;2023-01-29T06:28:37;2.80;98.40
16412;DHT22;8315;52.104;6.304;2023-01-29T06:31:04;2.80;98.40
16412;DHT22;8315;52.104;6.304;2023-01-29T06:33:32;2.80;98.40
16412;DHT22;8315;52.104;6.304;2023-01-29T06:36:00;2.80;98.40
16412;DHT22;8315;52.104;6.304;2023-01-29T06:38:28;2.70;98.40
16412;DHT22;8315;52.104;6.304;2023-01-29T06:40:55;2.70;98.40
16412;DHT22;8315;52.104;6.304;2023-01-29T06:43:24;2.70;98.40
16412;DHT22;8315;52.104;6.304;2023-01-29T06:45:51;2.80;98.40
16412;DHT22;8315;52.104;6.304;2023-01-29T06:48:19;2.80;98.40
16412;DHT22;8315;52.104;6.304;2023-01-29T06:50:46;2.90;98.40
16412;DHT22;8315;52.104;6.304;2023-01-29T06:53:13;2.80;98.40
16412;DHT22;8315;52.104;6.304;2023-01-29T06:55:40;2.90;98.40
16412;DHT22;8315;52.104;6.304;2023-01-29T06:58:08;2.90;98.40
16412;DHT22;8315;52.104;6.304;2023-01-29T07:00:37;2.90;98.40
16412;DHT22;8315;52.104;6.304;2023-01-29T07:03:04;2.80;98.40
16412;DHT22;8315;52.104;6.304;2023-01-29T07:05:30;2.70;98.40
16412;DHT22;8315;52.104;6.304;2023-01-29T07:07:57;2.80;98.40
16412;DHT22;8315;52.104;6.304;2023-01-29T07:10:24;2.80;98.40
16412;DHT22;8315;52.104;6.304;2023-01-29T07:12:51;2.80;98.40
16412;DHT22;8315;52.104;6.304;2023-01-29T07:15:18;2.80;98.40
16412;DHT22;8315;52.104;6.304;2023-01-29T07:17:55;2.80;98.40
16412;DHT22;8315;52.104;6.304;2023-01-29T07:20:23;2.80;98.40
16412;DHT22;8315;52.104;6.304;2023-01-29T07:22:51;2.80;98.40
16412;DHT22;8315;52.104;6.304;2023-01-29T07:25:17;2.70;98.40
16412;DHT22;8315;52.104;6.304;2023-01-29T07:27:44;2.80;98.40
16412;DHT22;8315;52.104;6.304;2023-01-29T07:30:12;2.80;98.40
16412;DHT22;8315;52.104;6.304;2023-01-29T07:32:39;2.80;98.40
16412;DHT22;8315;52.104;6.304;2023-01-29T07:35:08;2.80;98.40
16412;DHT22;8315;52.104;6.304;2023-01-29T07:37:35;2.90;98.40
16412;DHT22;8315;52.104;6.304;2023-01-29T07:40:02;2.80;98.40
16412;DHT22;8315;52.104;6.304;2023-01-29T07:42:34;2.80;98.40
16412;DHT22;8315;52.104;6.304;2023-01-29T07:45:01;2.80;98.40
16412;DHT22;8315;52.104;6.304;2023-01-29T07:47:28;2.80;98.40
16412;DHT22;8315;52.104;6.304;2023-01-29T07:49:55;2.70;98.40
16412;DHT22;8315;52.104;6.304;2023-01-29T07:52:24;2.70;98.40
16412;DHT22;8315;52.104;6.304;2023-01-29T07:54:50;2.60;98.40
16412;DHT22;8315;52.104;6.304;2023-01-29T07:57:17;2.70;98.40
16412;DHT22;8315;52.104;6.304;2023-01-29T07:59:44;2.70;98.40
16412;DHT22;8315;52.104;6.304;2023-01-29T08:02:11;2.80;98.40
16412;DHT22;8315;52.104;6.304;2023-01-29T08:04:38;2.70;98.40
16412;DHT22;8315;52.104;6.304;2023-01-29T08:07:05;2.80;98.40
16412;DHT22;8315;52.104;6.304;2023-01-29T08:09:35;2.70;98.40
16412;DHT22;8315;52.104;6.304;2023-01-29T08:12:02;2.70;98.40
16412;DHT22;8315;52.104;6.304;2023-01-29T08:14:29;2.70;98.40
16412;DHT22;8315;52.104;6.304;2023-01-29T08:16:56;2.80;98.40
16412;DHT22;8315;52.104;6.304;2023-01-29T08:19:22;2.70;98.40
16412;DHT22;8315;52.104;6.304;2023-01-29T08:21:49;2.70;98.40
16412;DHT22;8315;52.104;6.304;2023-01-29T08:24:16;2.60;98.40
16412;DHT22;8315;52.104;6.304;2023-01-29T08:26:44;2.70;98.40
16412;DHT22;8315;52.104;6.304;2023-01-29T08:29:11;2.70;98.40
16412;DHT22;8315;52.104;6.304;2023-01-29T08:31:38;2.70;98.40
16412;DHT22;8315;52.104;6.304;2023-01-29T08:34:05;2.70;98.40
16412;DHT22;8315;52.104;6.304;2023-01-29T08:36:32;2.80;98.40
16412;DHT22;8315;52.104;6.304;2023-01-29T08:38:59;2.70;98.40
16412;DHT22;8315;52.104;6.304;2023-01-29T08:41:26;2.80;98.40
16412;DHT22;8315;52.104;6.304;2023-01-29T08:43:54;2.70;98.40
16412;DHT22;8315;52.104;6.304;2023-01-29T08:46:21;2.70;98.40
16412;DHT22;8315;52.104;6.304;2023-01-29T08:48:48;2.70;98.40
16412;DHT22;8315;52.104;6.304;2023-01-29T08:51:15;2.80;98.40
16412;DHT22;8315;52.104;6.304;2023-01-29T08:53:42;2.80;98.40
16412;DHT22;8315;52.104;6.304;2023-01-29T08:56:09;2.80;98.40
16412;DHT22;8315;52.104;6.304;2023-01-29T08:58:35;2.80;98.40
16412;DHT22;8315;52.104;6.304;2023-01-29T09:01:07;2.90;98.40
16412;DHT22;8315;52.104;6.304;2023-01-29T09:03:35;2.90;98.40
16412;DHT22;8315;52.104;6.304;2023-01-29T09:06:05;3.00;98.40
16412;DHT22;8315;52.104;6.304;2023-01-29T09:08:32;2.90;98.40
16412;DHT22;8315;52.104;6.304;2023-01-29T09:10:59;2.90;98.40
16412;DHT22;8315;52.104;6.304;2023-01-29T09:13:26;2.90;98.40
16412;DHT22;8315;52.104;6.304;2023-01-29T09:15:53;2.90;98.40
16412;DHT22;8315;52.104;6.304;2023-01-29T09:18:21;3.00;98.40
16412;DHT22;8315;52.104;6.304;2023-01-29T09:20:48;3.00;98.40
16412;DHT22;8315;52.104;6.304;2023-01-29T09:23:15;3.00;98.40
16412;DHT22;8315;52.104;6.304;2023-01-29T09:25:42;3.00;98.40
16412;DHT22;8315;52.104;6.304;2023-01-29T09:28:09;3.10;98.40
16412;DHT22;8315;52.104;6.304;2023-01-29T09:30:36;3.20;98.40
16412;DHT22;8315;52.104;6.304;2023-01-29T09:33:03;3.20;98.40
16412;DHT22;8315;52.104;6.304;2023-01-29T09:35:31;3.20;98.40
16412;DHT22;8315;52.104;6.304;2023-01-29T09:37:59;3.10;98.40
16412;DHT22;8315;52.104;6.304;2023-01-29T09:40:27;3.20;98.40
16412;DHT22;8315;52.104;6.304;2023-01-29T09:42:57;3.20;98.40
16412;DHT22;8315;52.104;6.304;2023-01-29T09:45:27;3.10;98.40
16412;DHT22;8315;52.104;6.304;2023-01-29T09:47:56;3.20;98.40
16412;DHT22;8315;52.104;6.304;2023-01-29T09:50:25;3.30;98.40
16412;DHT22;8315;52.104;6.304;2023-01-29T09:52:56;3.30;98.40
16412;DHT22;8315;52.104;6.304;2023-01-29T09:55:27;3.30;98.40
16412;DHT22;8315;52.104;6.304;2023-01-29T09:57:56;3.20;98.40
16412;DHT22;8315;52.104;6.304;2023-01-29T10:00:25;3.20;98.40
16412;DHT22;8315;52.104;6.304;2023-01-29T10:03:04;3.30;98.40
16412;DHT22;8315;52.104;6.304;2023-01-29T10:05:49;3.30;98.40
16412;DHT22;8315;52.104;6.304;2023-01-29T10:08:35;3.30;98.40
16412;DHT22;8315;52.104;6.304;2023-01-29T10:11:12;3.30;98.40
16412;DHT22;8315;52.104;6.304;2023-01-29T10:13:47;3.40;98.40
16412;DHT22;8315;52.104;6.304;2023-01-29T10:16:20;3.30;98.40
16412;DHT22;8315;52.104;6.304;2023-01-29T10:24:36;3.30;98.40
16412;DHT22;8315;52.104;6.304;2023-01-29T10:27:08;3.40;98.40
16412;DHT22;8315;52.104;6.304;2023-01-29T10:29:39;3.40;98.40
16412;DHT22;8315;52.104;6.304;2023-01-29T10:32:07;3.50;98.40
16412;DHT22;8315;52.104;6.304;2023-01-29T10:34:40;3.50;98.40
16412;DHT22;8315;52.104;6.304;2023-01-29T10:37:12;3.50;98.40
16412;DHT22;8315;52.104;6.304;2023-01-29T10:39:44;3.50;98.40
16412;DHT22;8315;52.104;6.304;2023-01-29T10:42:16;3.40;98.40
16412;DHT22;8315;52.104;6.304;2023-01-29T10:44:55;3.40;98.40
16412;DHT22;8315;52.104;6.304;2023-01-29T10:47:35;3.50;98.40
16412;DHT22;8315;52.104;6.304;2023-01-29T10:50:14;3.50;98.40
16412;DHT22;8315;52.104;6.304;2023-01-29T10:52:49;3.50;98.40
16412;DHT22;8315;52.104;6.304;2023-01-29T10:55:31;3.60;98.40
16412;DHT22;8315;52.104;6.304;2023-01-29T10:58:06;3.50;98.40
16412;DHT22;8315;52.104;6.304;2023-01-29T11:00:37;3.60;98.40
16412;DHT22;8315;52.104;6.304;2023-01-29T11:03:10;3.60;98.40
16412;DHT22;8315;52.104;6.304;2023-01-29T11:05:41;3.60;98.40
16412;DHT22;8315;52.104;6.304;2023-01-29T11:08:10;3.50;98.40
16412;DHT22;8315;52.104;6.304;2023-01-29T11:10:41;3.50;98.40
16412;DHT22;8315;52.104;6.304;2023-01-29T11:13:12;3.60;98.40
16412;DHT22;8315;52.104;6.304;2023-01-29T11:15:40;3.60;98.40
16412;DHT22;8315;52.104;6.304;2023-01-29T11:18:07;3.60;98.40
16412;DHT22;8315;52.104;6.304;2023-01-29T11:20:38;3.70;98.40
16412;DHT22;8315;52.104;6.304;2023-01-29T11:23:17;3.70;98.40
16412;DHT22;8315;52.104;6.304;2023-01-29T11:25:53;3.60;98.40
16412;DHT22;8315;52.104;6.304;2023-01-29T11:28:36;3.70;98.40
16412;DHT22;8315;52.104;6.304;2023-01-29T11:31:14;3.60;98.40
16412;DHT22;8315;52.104;6.304;2023-01-29T11:33:42;3.70;98.40
16412;DHT22;8315;52.104;6.304;2023-01-29T11:39:11;3.70;98.40
16412;DHT22;8315;52.104;6.304;2023-01-29T11:41:46;3.80;98.40
16412;DHT22;8315;52.104;6.304;2023-01-29T11:44:17;3.70;98.40
16412;DHT22;8315;52.104;6.304;2023-01-29T11:46:46;3.70;98.40
16412;DHT22;8315;52.104;6.304;2023-01-29T11:49:19;3.80;98.40
16412;DHT22;8315;52.104;6.304;2023-01-29T11:51:50;3.70;98.40
16412;DHT22;8315;52.104;6.304;2023-01-29T11:54:18;3.80;98.40
16412;DHT22;8315;52.104;6.304;2023-01-29T11:56:46;3.80;98.40
16412;DHT22;8315;52.104;6.304;2023-01-29T11:59:25;3.80;98.40
16412;DHT22;8315;52.104;6.304;2023-01-29T12:01:55;3.80;98.40
16412;DHT22;8315;52.104;6.304;2023-01-29T12:04:31;3.90;98.40
16412;DHT22;8315;52.104;6.304;2023-01-29T12:06:58;3.90;98.40
16412;DHT22;8315;52.104;6.304;2023-01-29T12:09:25;3.90;98.40
16412;DHT22;8315;52.104;6.304;2023-01-29T12:11:54;3.90;98.40
16412;DHT22;8315;52.104;6.304;2023-01-29T12:14:23;3.90;98.40
16412;DHT22;8315;52.104;6.304;2023-01-29T12:16:53;4.00;98.40
16412;DHT22;8315;52.104;6.304;2023-01-29T12:19:24;3.90;98.40
16412;DHT22;8315;52.104;6.304;2023-01-29T12:21:54;3.90;98.40
16412;DHT22;8315;52.104;6.304;2023-01-29T12:24:28;3.90;98.40
16412;DHT22;8315;52.104;6.304;2023-01-29T12:27:02;3.90;98.40
16412;DHT22;8315;52.104;6.304;2023-01-29T12:29:35;4.00;98.40
16412;DHT22;8315;52.104;6.304;2023-01-29T12:32:06;3.90;98.40
16412;DHT22;8315;52.104;6.304;2023-01-29T12:34:40;4.00;98.40
16412;DHT22;8315;52.104;6.304;2023-01-29T12:37:12;4.00;98.40
16412;DHT22;8315;52.104;6.304;2023-01-29T12:39:44;4.00;98.40
16412;DHT22;8315;52.104;6.304;2023-01-29T12:42:14;4.10;98.40
16412;DHT22;8315;52.104;6.304;2023-01-29T12:44:43;4.10;98.40
16412;DHT22;8315;52.104;6.304;2023-01-29T12:47:13;4.10;98.40
16412;DHT22;8315;52.104;6.304;2023-01-29T12:49:41;4.10;98.40
16412;DHT22;8315;52.104;6.304;2023-01-29T12:52:10;4.10;98.40
16412;DHT22;8315;52.104;6.304;2023-01-29T12:54:40;4.10;98.40
16412;DHT22;8315;52.104;6.304;2023-01-29T12:57:09;4.10;98.40
16412;DHT22;8315;52.104;6.304;2023-01-29T12:59:46;4.10;98.40
16412;DHT22;8315;52.104;6.304;2023-01-29T13:02:18;4.20;98.40
16412;DHT22;8315;52.104;6.304;2023-01-29T13:04:51;4.20;98.40
16412;DHT22;8315;52.104;6.304;2023-01-29T13:07:22;4.20;98.40
16412;DHT22;8315;52.104;6.304;2023-01-29T13:09:53;4.20;98.40
16412;DHT22;8315;52.104;6.304;2023-01-29T13:12:24;4.20;98.40
16412;DHT22;8315;52.104;6.304;2023-01-29T13:14:52;4.10;98.40
16412;DHT22;8315;52.104;6.304;2023-01-29T13:17:22;4.20;98.40
16412;DHT22;8315;52.104;6.304;2023-01-29T13:19:51;4.20;98.40
16412;DHT22;8315;52.104;6.304;2023-01-29T13:22:20;4.20;98.40
16412;DHT22;8315;52.104;6.304;2023-01-29T13:24:49;4.10;98.40
16412;DHT22;8315;52.104;6.304;2023-01-29T13:27:19;4.10;98.40
16412;DHT22;8315;52.104;6.304;2023-01-29T13:29:49;4.20;98.40
16412;DHT22;8315;52.104;6.304;2023-01-29T13:32:20;4.20;98.40
16412;DHT22;8315;52.104;6.304;2023-01-29T13:34:50;4.30;98.40
16412;DHT22;8315;52.104;6.304;2023-01-29T13:37:19;4.20;98.40
16412;DHT22;8315;52.104;6.304;2023-01-29T13:39:53;4.20;98.40
16412;DHT22;8315;52.104;6.304;2023-01-29T13:42:22;4.20;98.40
16412;DHT22;8315;52.104;6.304;2023-01-29T13:44:52;4.20;98.40
16412;DHT22;8315;52.104;6.304;2023-01-29T13:47:21;4.20;98.40
16412;DHT22;8315;52.104;6.304;2023-01-29T13:49:53;4.30;98.40
16412;DHT22;8315;52.104;6.304;2023-01-29T13:52:30;4.30;98.40
16412;DHT22;8315;52.104;6.304;2023-01-29T13:55:01;4.20;98.40
16412;DHT22;8315;52.104;6.304;2023-01-29T13:57:34;4.20;98.40
16412;DHT22;8315;52.104;6.304;2023-01-29T14:00:04;4.20;98.40
16412;DHT22;8315;52.104;6.304;2023-01-29T14:02:35;4.10;98.40
16412;DHT22;8315;52.104;6.304;2023-01-29T14:08:08;4.10;98.40
16412;DHT22;8315;52.104;6.304;2023-01-29T14:14:01;4.20;98.40
16412;DHT22;8315;52.104;6.304;2023-01-29T14:16:35;4.20;98.40
16412;DHT22;8315;52.104;6.304;2023-01-29T14:19:03;4.20;98.40
16412;DHT22;8315;52.104;6.304;2023-01-29T14:21:31;4.20;98.40
16412;DHT22;8315;52.104;6.304;2023-01-29T14:24:06;4.20;98.40
16412;DHT22;8315;52.104;6.304;2023-01-29T14:26:39;4.30;98.40
16412;DHT22;8315;52.104;6.304;2023-01-29T14:29:14;4.20;98.40
16412;DHT22;8315;52.104;6.304;2023-01-29T14:31:46;4.20;98.40
16412;DHT22;8315;52.104;6.304;2023-01-29T14:34:15;4.20;98.40
16412;DHT22;8315;52.104;6.304;2023-01-29T14:36:46;4.30;98.40
16412;DHT22;8315;52.104;6.304;2023-01-29T14:39:27;4.40;98.40
16412;DHT22;8315;52.104;6.304;2023-01-29T14:41:58;4.40;98.40
16412;DHT22;8315;52.104;6.304;2023-01-29T14:44:45;4.40;98.40
16412;DHT22;8315;52.104;6.304;2023-01-29T14:47:18;4.40;98.40
16412;DHT22;8315;52.104;6.304;2023-01-29T14:49:52;4.30;98.40
16412;DHT22;8315;52.104;6.304;2023-01-29T14:52:20;4.30;98.40
16412;DHT22;8315;52.104;6.304;2023-01-29T14:54:48;4.30;98.40
16412;DHT22;8315;52.104;6.304;2023-01-29T14:57:16;4.30;98.40
16412;DHT22;8315;52.104;6.304;2023-01-29T14:59:45;4.40;98.40
16412;DHT22;8315;52.104;6.304;2023-01-29T15:02:16;4.50;98.40
16412;DHT22;8315;52.104;6.304;2023-01-29T15:04:47;4.40;98.40
16412;DHT22;8315;52.104;6.304;2023-01-29T15:07:18;4.30;98.40
16412;DHT22;8315;52.104;6.304;2023-01-29T15:09:51;4.30;98.40
16412;DHT22;8315;52.104;6.304;2023-01-29T15:12:22;4.30;98.40
16412;DHT22;8315;52.104;6.304;2023-01-29T15:14:55;4.20;98.40
16412;DHT22;8315;52.104;6.304;2023-01-29T15:17:27;4.20;98.40
16412;DHT22;8315;52.104;6.304;2023-01-29T15:19:56;4.20;98.40
16412;DHT22;8315;52.104;6.304;2023-01-29T15:22:23;4.10;98.40
16412;DHT22;8315;52.104;6.304;2023-01-29T15:25:04;4.10;98.40
16412;DHT22;8315;52.104;6.304;2023-01-29T15:27:32;4.10;98.40
16412;DHT22;8315;52.104;6.304;2023-01-29T15:30:00;4.10;98.40
16412;DHT22;8315;52.104;6.304;2023-01-29T15:32:32;4.10;98.40
16412;DHT22;8315;52.104;6.304;2023-01-29T15:35:04;4.10;98.40
16412;DHT22;8315;52.104;6.304;2023-01-29T15:37:33;4.10;98.40
16412;DHT22;8315;52.104;6.304;2023-01-29T15:40:02;4.10;98.40
16412;DHT22;8315;52.104;6.304;2023-01-29T15:42:40;4.10;98.40
16412;DHT22;8315;52.104;6.304;2023-01-29T15:45:19;4.00;98.40
16412;DHT22;8315;52.104;6.304;2023-01-29T15:47:48;4.00;98.40
16412;DHT22;8315;52.104;6.304;2023-01-29T15:50:16;4.00;98.40
16412;DHT22;8315;52.104;6.304;2023-01-29T15:52:43;4.00;98.40
16412;DHT22;8315;52.104;6.304;2023-01-29T15:55:14;4.00;98.40
16412;DHT22;8315;52.104;6.304;2023-01-29T15:57:41;4.10;98.40
16412;DHT22;8315;52.104;6.304;2023-01-29T16:00:17;4.10;98.40
16412;DHT22;8315;52.104;6.304;2023-01-29T16:02:46;4.00;98.40
16412;DHT22;8315;52.104;6.304;2023-01-29T16:05:15;4.00;98.40
16412;DHT22;8315;52.104;6.304;2023-01-29T16:07:44;3.90;98.40
16412;DHT22;8315;52.104;6.304;2023-01-29T16:10:15;3.90;98.40
16412;DHT22;8315;52.104;6.304;2023-01-29T16:12:43;4.00;98.40
16412;DHT22;8315;52.104;6.304;2023-01-29T16:15:27;4.00;98.40
16412;DHT22;8315;52.104;6.304;2023-01-29T16:17:56;4.00;98.40
16412;DHT22;8315;52.104;6.304;2023-01-29T16:20:31;4.00;98.40
16412;DHT22;8315;52.104;6.304;2023-01-29T16:23:00;4.00;98.40
16412;DHT22;8315;52.104;6.304;2023-01-29T16:25:27;4.00;98.40
16412;DHT22;8315;52.104;6.304;2023-01-29T16:27:55;4.00;98.40
16412;DHT22;8315;52.104;6.304;2023-01-29T16:30:23;4.00;98.40
16412;DHT22;8315;52.104;6.304;2023-01-29T16:32:51;4.00;98.40
16412;DHT22;8315;52.104;6.304;2023-01-29T16:35:18;3.90;98.40
16412;DHT22;8315;52.104;6.304;2023-01-29T16:37:47;3.90;98.40
16412;DHT22;8315;52.104;6.304;2023-01-29T16:40:24;3.90;98.40
16412;DHT22;8315;52.104;6.304;2023-01-29T16:42:55;3.90;98.40